sensor_id;sensor_type;location;lat;lon;timestamp;pressure;altitude;pressure_sealevel;temperature;humidity
13314;BME280;6725;48.112;11.604;2022-09-09T00:01:51;93113.09;;;16.01;100.00
13314;BME280;6725;48.112;11.604;2022-09-09T00:04:34;93095.06;;;16.00;100.00
13314;BME280;6725;48.112;11.604;2022-09-09T00:12:55;93051.22;;;15.91;100.00
13314;BME280;6725;48.112;11.604;2022-09-09T00:15:25;93035.69;;;15.88;100.00
13314;BME280;6725;48.112;11.604;2022-09-09T00:17:58;93016.19;;;15.86;100.00
13314;BME280;6725;48.112;11.604;2022-09-09T00:23:37;92998.63;;;15.78;100.00
13314;BME280;6725;48.112;11.604;2022-09-09T00:28:54;92964.06;;;15.72;100.00
13314;BME280;6725;48.112;11.604;2022-09-09T00:31:28;92961.81;;;15.70;100.00
13314;BME280;6725;48.112;11.604;2022-09-09T00:34:00;92947.06;;;15.73;100.00
13314;BME280;6725;48.112;11.604;2022-09-09T00:36:28;92950.09;;;15.75;100.00
13314;BME280;6725;48.112;11.604;2022-09-09T00:38:57;92939.09;;;15.75;100.00
13314;BME280;6725;48.112;11.604;2022-09-09T00:44:31;92932.84;;;15.80;100.00
13314;BME280;6725;48.112;11.604;2022-09-09T00:55:17;92940.13;;;15.94;100.00
13314;BME280;6725;48.112;11.604;2022-09-09T00:57:48;92941.63;;;15.95;100.00
13314;BME280;6725;48.112;11.604;2022-09-09T01:00:25;92940.63;;;15.98;100.00
13314;BME280;6725;48.112;11.604;2022-09-09T01:10:59;92933.81;;;15.77;100.00
13314;BME280;6725;48.112;11.604;2022-09-09T01:13:27;92930.56;;;15.73;100.00
13314;BME280;6725;48.112;11.604;2022-09-09T01:15:57;92919.78;;;15.64;100.00
13314;BME280;6725;48.112;11.604;2022-09-09T01:18:28;92901.25;;;15.65;100.00
13314;BME280;6725;48.112;11.604;2022-09-09T01:21:04;92892.00;;;15.62;100.00
13314;BME280;6725;48.112;11.604;2022-09-09T01:24:04;92877.75;;;15.64;100.00
13314;BME280;6725;48.112;11.604;2022-09-09T01:26:41;92863.00;;;15.61;100.00
13314;BME280;6725;48.112;11.604;2022-09-09T01:29:08;92850.50;;;15.60;100.00
13314;BME280;6725;48.112;11.604;2022-09-09T01:31:40;92848.25;;;15.59;100.00
13314;BME280;6725;48.112;11.604;2022-09-09T01:34:13;92835.97;;;15.54;100.00
13314;BME280;6725;48.112;11.604;2022-09-09T01:36:44;92822.44;;;15.56;100.00
13314;BME280;6725;48.112;11.604;2022-09-09T01:39:11;92807.47;;;15.57;100.00
13314;BME280;6725;48.112;11.604;2022-09-09T01:41:37;92779.69;;;15.55;100.00
13314;BME280;6725;48.112;11.604;2022-09-09T01:44:04;92773.69;;;15.51;100.00
13314;BME280;6725;48.112;11.604;2022-09-09T01:46:31;92773.19;;;15.53;100.00
13314;BME280;6725;48.112;11.604;2022-09-09T01:48:57;92767.44;;;15.56;100.00
13314;BME280;6725;48.112;11.604;2022-09-09T01:51:23;92767.97;;;15.60;100.00
13314;BME280;6725;48.112;11.604;2022-09-09T01:53:49;92784.97;;;15.64;100.00
13314;BME280;6725;48.112;11.604;2022-09-09T02:04:43;92776.22;;;15.55;100.00
13314;BME280;6725;48.112;11.604;2022-09-09T02:07:32;92782.69;;;15.52;100.00
13314;BME280;6725;48.112;11.604;2022-09-09T02:10:20;92796.94;;;15.45;100.00
13314;BME280;6725;48.112;11.604;2022-09-09T02:12:51;92786.66;;;15.45;100.00
13314;BME280;6725;48.112;11.604;2022-09-09T02:15:34;92790.44;;;15.42;100.00
13314;BME280;6725;48.112;11.604;2022-09-09T02:18:04;92777.91;;;15.41;100.00
13314;BME280;6725;48.112;11.604;2022-09-09T02:20:33;92774.16;;;15.39;100.00
13314;BME280;6725;48.112;11.604;2022-09-09T02:23:00;92764.44;;;15.43;100.00
13314;BME280;6725;48.112;11.604;2022-09-09T02:25:28;92748.16;;;15.45;100.00
13314;BME280;6725;48.112;11.604;2022-09-09T02:27:55;92756.41;;;15.45;100.00
13314;BME280;6725;48.112;11.604;2022-09-09T02:30:20;92759.41;;;15.42;100.00
13314;BME280;6725;48.112;11.604;2022-09-09T02:32:48;92767.66;;;15.36;100.00
13314;BME280;6725;48.112;11.604;2022-09-09T02:35:19;92763.13;;;15.33;100.00
13314;BME280;6725;48.112;11.604;2022-09-09T02:37:46;92761.38;;;15.30;100.00
13314;BME280;6725;48.112;11.604;2022-09-09T02:40:13;92755.63;;;15.23;100.00
13314;BME280;6725;48.112;11.604;2022-09-09T02:42:41;92753.38;;;15.21;100.00
13314;BME280;6725;48.112;11.604;2022-09-09T02:45:09;92740.34;;;15.16;100.00
13314;BME280;6725;48.112;11.604;2022-09-09T02:47:39;92735.59;;;15.22;100.00
13314;BME280;6725;48.112;11.604;2022-09-09T02:55:14;92740.63;;;15.29;100.00
13314;BME280;6725;48.112;11.604;2022-09-09T02:57:43;92744.88;;;15.30;100.00
13314;BME280;6725;48.112;11.604;2022-09-09T03:00:12;92748.13;;;15.29;100.00
13314;BME280;6725;48.112;11.604;2022-09-09T03:02:38;92752.38;;;15.30;100.00
13314;BME280;6725;48.112;11.604;2022-09-09T03:05:04;92744.13;;;15.30;100.00
13314;BME280;6725;48.112;11.604;2022-09-09T03:07:30;92738.13;;;15.31;100.00
13314;BME280;6725;48.112;11.604;2022-09-09T03:09:55;92745.66;;;15.36;100.00
13314;BME280;6725;48.112;11.604;2022-09-09T03:12:20;92739.88;;;15.34;100.00
13314;BME280;6725;48.112;11.604;2022-09-09T03:14:46;92745.94;;;15.38;100.00
13314;BME280;6725;48.112;11.604;2022-09-09T03:17:12;92751.66;;;15.40;100.00
13314;BME280;6725;48.112;11.604;2022-09-09T03:19:37;92752.94;;;15.39;100.00
13314;BME280;6725;48.112;11.604;2022-09-09T03:22:03;92746.91;;;15.35;100.00
13314;BME280;6725;48.112;11.604;2022-09-09T03:24:29;92747.16;;;15.37;100.00
13314;BME280;6725;48.112;11.604;2022-09-09T03:26:55;92741.66;;;15.37;100.00
13314;BME280;6725;48.112;11.604;2022-09-09T03:29:21;92745.38;;;15.34;100.00
13314;BME280;6725;48.112;11.604;2022-09-09T03:31:46;92750.88;;;15.34;100.00
13314;BME280;6725;48.112;11.604;2022-09-09T03:34:12;92745.13;;;15.32;100.00
13314;BME280;6725;48.112;11.604;2022-09-09T03:36:39;92742.88;;;15.25;100.00
13314;BME280;6725;48.112;11.604;2022-09-09T03:39:06;92775.88;;;15.25;100.00
13314;BME280;6725;48.112;11.604;2022-09-09T03:41:31;92773.34;;;15.22;100.00
13314;BME280;6725;48.112;11.604;2022-09-09T03:43:56;92765.34;;;15.18;100.00
13314;BME280;6725;48.112;11.604;2022-09-09T03:46:23;92768.59;;;15.17;100.00
13314;BME280;6725;48.112;11.604;2022-09-09T03:48:50;92756.84;;;15.16;100.00
13314;BME280;6725;48.112;11.604;2022-09-09T03:51:16;92755.34;;;15.15;100.00
13314;BME280;6725;48.112;11.604;2022-09-09T03:53:42;92757.84;;;15.13;100.00
13314;BME280;6725;48.112;11.604;2022-09-09T03:56:08;92752.34;;;15.13;100.00
13314;BME280;6725;48.112;11.604;2022-09-09T03:58:35;92752.09;;;15.17;100.00
13314;BME280;6725;48.112;11.604;2022-09-09T04:01:04;92740.09;;;15.20;100.00
13314;BME280;6725;48.112;11.604;2022-09-09T04:03:30;92740.09;;;15.20;100.00
13314;BME280;6725;48.112;11.604;2022-09-09T04:05:58;92736.59;;;15.25;100.00
13314;BME280;6725;48.112;11.604;2022-09-09T04:08:24;92735.63;;;15.28;100.00
13314;BME280;6725;48.112;11.604;2022-09-09T04:10:50;92739.38;;;15.30;100.00
13314;BME280;6725;48.112;11.604;2022-09-09T04:13:17;92736.88;;;15.32;100.00
13314;BME280;6725;48.112;11.604;2022-09-09T04:15:44;92732.69;;;15.37;100.00
13314;BME280;6725;48.112;11.604;2022-09-09T04:18:10;92733.41;;;15.37;100.00
13314;BME280;6725;48.112;11.604;2022-09-09T04:20:37;92733.19;;;15.41;100.00
13314;BME280;6725;48.112;11.604;2022-09-09T04:23:02;92741.44;;;15.41;100.00
13314;BME280;6725;48.112;11.604;2022-09-09T04:25:28;92744.41;;;15.37;100.00
13314;BME280;6725;48.112;11.604;2022-09-09T04:27:55;92744.63;;;15.34;100.00
13314;BME280;6725;48.112;11.604;2022-09-09T04:30:21;92741.38;;;15.30;100.00
13314;BME280;6725;48.112;11.604;2022-09-09T04:32:46;92735.13;;;15.29;100.00
13314;BME280;6725;48.112;11.604;2022-09-09T04:35:12;92741.38;;;15.24;100.00
13314;BME280;6725;48.112;11.604;2022-09-09T04:37:37;92744.84;;;15.19;100.00
13314;BME280;6725;48.112;11.604;2022-09-09T04:40:03;92741.59;;;15.15;100.00
13314;BME280;6725;48.112;11.604;2022-09-09T04:42:28;92736.09;;;15.10;100.00
13314;BME280;6725;48.112;11.604;2022-09-09T04:44:54;92739.84;;;15.12;100.00
13314;BME280;6725;48.112;11.604;2022-09-09T04:47:19;92731.34;;;15.10;100.00
13314;BME280;6725;48.112;11.604;2022-09-09T04:49:45;92723.84;;;15.11;100.00
13314;BME280;6725;48.112;11.604;2022-09-09T04:52:10;92727.09;;;15.09;100.00
13314;BME280;6725;48.112;11.604;2022-09-09T04:54:35;92721.81;;;15.00;100.00
13314;BME280;6725;48.112;11.604;2022-09-09T04:57:01;92721.31;;;14.96;100.00
13314;BME280;6725;48.112;11.604;2022-09-09T04:59:27;92719.31;;;14.97;100.00
13314;BME280;6725;48.112;11.604;2022-09-09T05:01:52;92715.81;;;14.96;100.00
13314;BME280;6725;48.112;11.604;2022-09-09T05:04:20;92713.56;;;15.00;100.00
13314;BME280;6725;48.112;11.604;2022-09-09T05:06:46;92718.84;;;15.04;100.00
13314;BME280;6725;48.112;11.604;2022-09-09T05:09:11;92724.34;;;14.98;100.00
13314;BME280;6725;48.112;11.604;2022-09-09T05:11:36;92727.59;;;15.02;100.00
13314;BME280;6725;48.112;11.604;2022-09-09T05:14:03;92728.81;;;15.01;100.00
13314;BME280;6725;48.112;11.604;2022-09-09T05:16:28;92720.84;;;15.03;100.00
13314;BME280;6725;48.112;11.604;2022-09-09T05:18:54;92732.06;;;15.05;100.00
13314;BME280;6725;48.112;11.604;2022-09-09T05:21:21;92725.09;;;15.15;100.00
13314;BME280;6725;48.112;11.604;2022-09-09T05:23:47;92728.13;;;15.23;100.00
13314;BME280;6725;48.112;11.604;2022-09-09T05:26:19;92735.88;;;15.19;100.00
13314;BME280;6725;48.112;11.604;2022-09-09T05:28:45;92737.09;;;15.18;100.00
13314;BME280;6725;48.112;11.604;2022-09-09T05:31:12;92742.38;;;15.21;100.00
13314;BME280;6725;48.112;11.604;2022-09-09T05:33:40;92749.63;;;15.24;100.00
13314;BME280;6725;48.112;11.604;2022-09-09T05:36:10;92745.63;;;15.25;100.00
13314;BME280;6725;48.112;11.604;2022-09-09T05:38:39;92755.88;;;15.30;100.00
13314;BME280;6725;48.112;11.604;2022-09-09T05:41:06;92749.38;;;15.33;100.00
13314;BME280;6725;48.112;11.604;2022-09-09T05:43:32;92760.66;;;15.35;100.00
13314;BME280;6725;48.112;11.604;2022-09-09T05:48:43;92777.69;;;15.45;100.00
13314;BME280;6725;48.112;11.604;2022-09-09T05:51:13;92775.94;;;15.47;100.00
13314;BME280;6725;48.112;11.604;2022-09-09T05:53:41;92785.94;;;15.50;100.00
13314;BME280;6725;48.112;11.604;2022-09-09T05:56:10;92786.19;;;15.58;100.00
13314;BME280;6725;48.112;11.604;2022-09-09T05:58:36;92788.72;;;15.61;100.00
13314;BME280;6725;48.112;11.604;2022-09-09T06:01:07;92798.47;;;15.73;100.00
13314;BME280;6725;48.112;11.604;2022-09-09T06:03:34;92802.72;;;15.85;100.00
13314;BME280;6725;48.112;11.604;2022-09-09T06:06:01;92823.53;;;15.97;100.00
13314;BME280;6725;48.112;11.604;2022-09-09T06:08:27;92824.25;;;16.09;100.00
13314;BME280;6725;48.112;11.604;2022-09-09T06:10:52;92844.03;;;16.07;100.00
13314;BME280;6725;48.112;11.604;2022-09-09T06:13:18;92851.06;;;16.08;100.00
13314;BME280;6725;48.112;11.604;2022-09-09T06:15:51;92861.81;;;16.12;100.00
13314;BME280;6725;48.112;11.604;2022-09-09T06:18:17;92877.34;;;16.15;100.00
13314;BME280;6725;48.112;11.604;2022-09-09T06:21:01;92880.09;;;16.15;100.00
13314;BME280;6725;48.112;11.604;2022-09-09T06:23:29;92880.09;;;16.20;100.00
13314;BME280;6725;48.112;11.604;2022-09-09T06:26:03;92888.84;;;16.19;100.00
13314;BME280;6725;48.112;11.604;2022-09-09T06:28:31;92903.38;;;16.19;100.00
13314;BME280;6725;48.112;11.604;2022-09-09T06:30:58;92913.38;;;16.22;100.00
13314;BME280;6725;48.112;11.604;2022-09-09T06:33:23;92924.16;;;16.20;100.00
13314;BME280;6725;48.112;11.604;2022-09-09T06:35:53;92922.16;;;16.26;100.00
13314;BME280;6725;48.112;11.604;2022-09-09T06:38:19;92924.66;;;16.30;100.00
13314;BME280;6725;48.112;11.604;2022-09-09T06:40:52;92925.44;;;16.36;100.00
13314;BME280;6725;48.112;11.604;2022-09-09T06:43:19;92938.16;;;16.33;100.00
13314;BME280;6725;48.112;11.604;2022-09-09T06:45:56;92944.94;;;16.32;100.00
13314;BME280;6725;48.112;11.604;2022-09-09T06:48:22;92944.75;;;16.42;100.00
13314;BME280;6725;48.112;11.604;2022-09-09T06:50:47;92953.50;;;16.51;100.00
13314;BME280;6725;48.112;11.604;2022-09-09T06:53:18;92959.03;;;16.57;100.00
13314;BME280;6725;48.112;11.604;2022-09-09T06:55:46;92956.75;;;16.72;100.00
13314;BME280;6725;48.112;11.604;2022-09-09T06:58:11;92960.78;;;16.82;100.00
13314;BME280;6725;48.112;11.604;2022-09-09T07:00:37;92974.56;;;16.87;100.00
13314;BME280;6725;48.112;11.604;2022-09-09T07:03:04;92975.03;;;16.97;100.00
13314;BME280;6725;48.112;11.604;2022-09-09T07:05:29;92981.06;;;17.01;100.00
13314;BME280;6725;48.112;11.604;2022-09-09T07:07:54;92981.78;;;17.07;100.00
13314;BME280;6725;48.112;11.604;2022-09-09T07:10:20;92977.78;;;17.19;100.00
13314;BME280;6725;48.112;11.604;2022-09-09T07:12:50;92979.53;;;17.27;100.00
13314;BME280;6725;48.112;11.604;2022-09-09T07:15:16;92992.03;;;17.34;100.00
13314;BME280;6725;48.112;11.604;2022-09-09T07:17:43;93000.31;;;17.34;100.00
13314;BME280;6725;48.112;11.604;2022-09-09T07:20:09;92995.81;;;17.42;100.00
13314;BME280;6725;48.112;11.604;2022-09-09T07:22:34;93010.09;;;17.40;100.00
13314;BME280;6725;48.112;11.604;2022-09-09T07:24:59;93026.63;;;17.40;100.00
13314;BME280;6725;48.112;11.604;2022-09-09T07:27:25;93036.69;;;17.38;100.00
13314;BME280;6725;48.112;11.604;2022-09-09T07:29:50;93062.03;;;17.31;100.00
13314;BME280;6725;48.112;11.604;2022-09-09T07:32:16;93051.50;;;17.24;100.00
13314;BME280;6725;48.112;11.604;2022-09-09T07:34:42;93036.44;;;17.25;100.00
13314;BME280;6725;48.112;11.604;2022-09-09T07:37:08;93035.44;;;17.28;100.00
13314;BME280;6725;48.112;11.604;2022-09-09T07:39:36;93046.72;;;17.35;100.00
13314;BME280;6725;48.112;11.604;2022-09-09T07:42:02;93057.00;;;17.35;100.00
13314;BME280;6725;48.112;11.604;2022-09-09T07:44:29;93062.53;;;17.46;100.00
13314;BME280;6725;48.112;11.604;2022-09-09T07:46:55;93070.56;;;17.55;100.00
13314;BME280;6725;48.112;11.604;2022-09-09T07:49:20;93077.28;;;17.65;100.00
13314;BME280;6725;48.112;11.604;2022-09-09T07:51:46;93090.06;;;17.79;100.00
13314;BME280;6725;48.112;11.604;2022-09-09T07:54:15;93101.09;;;17.90;100.00
13314;BME280;6725;48.112;11.604;2022-09-09T07:56:41;93120.16;;;18.04;100.00
13314;BME280;6725;48.112;11.604;2022-09-09T07:59:08;93142.00;;;18.08;100.00
13314;BME280;6725;48.112;11.604;2022-09-09T08:01:44;93155.78;;;18.19;100.00
13314;BME280;6725;48.112;11.604;2022-09-09T08:04:15;93175.59;;;18.23;100.00
13314;BME280;6725;48.112;11.604;2022-09-09T08:06:44;93182.88;;;18.26;100.00
13314;BME280;6725;48.112;11.604;2022-09-09T08:09:10;93179.34;;;18.36;100.00
13314;BME280;6725;48.112;11.604;2022-09-09T08:11:36;93200.94;;;18.49;100.00
13314;BME280;6725;48.112;11.604;2022-09-09T08:14:03;93219.53;;;18.54;100.00
13314;BME280;6725;48.112;11.604;2022-09-09T08:16:31;93240.41;;;18.49;100.00
13314;BME280;6725;48.112;11.604;2022-09-09T08:18:57;93250.66;;;18.60;100.00
13314;BME280;6725;48.112;11.604;2022-09-09T08:21:24;93278.31;;;18.60;100.00
13314;BME280;6725;48.112;11.604;2022-09-09T08:23:52;93286.84;;;18.78;100.00
13314;BME280;6725;48.112;11.604;2022-09-09T08:26:20;93297.13;;;18.83;100.00
13314;BME280;6725;48.112;11.604;2022-09-09T08:28:48;93298.81;;;19.03;100.00
13314;BME280;6725;48.112;11.604;2022-09-09T08:31:21;93322.19;;;19.13;100.00
13314;BME280;6725;48.112;11.604;2022-09-09T08:33:47;93357.16;;;19.27;100.00
13314;BME280;6725;48.112;11.604;2022-09-09T08:36:17;93379.25;;;19.38;100.00
13314;BME280;6725;48.112;11.604;2022-09-09T08:38:46;93405.19;;;19.24;100.00
13314;BME280;6725;48.112;11.604;2022-09-09T08:52:29;93436.91;;;19.12;100.00
13314;BME280;6725;48.112;11.604;2022-09-09T08:55:02;93418.06;;;19.05;100.00
13314;BME280;6725;48.112;11.604;2022-09-09T08:57:30;93388.63;;;19.07;100.00
13314;BME280;6725;48.112;11.604;2022-09-09T08:59:58;93382.31;;;19.07;100.00
13314;BME280;6725;48.112;11.604;2022-09-09T09:02:44;93378.81;;;19.01;100.00
13314;BME280;6725;48.112;11.604;2022-09-09T09:05:36;93350.19;;;18.82;100.00
13314;BME280;6725;48.112;11.604;2022-09-09T09:08:26;93284.06;;;18.78;100.00
13314;BME280;6725;48.112;11.604;2022-09-09T09:10:56;93228.50;;;18.76;100.00
13314;BME280;6725;48.112;11.604;2022-09-09T09:13:35;93185.75;;;18.83;100.00
13314;BME280;6725;48.112;11.604;2022-09-09T09:19:16;93201.19;;;19.08;100.00
13314;BME280;6725;48.112;11.604;2022-09-09T09:26:58;93280.72;;;19.59;100.00
13314;BME280;6725;48.112;11.604;2022-09-09T09:29:26;93290.41;;;19.82;100.00
13314;BME280;6725;48.112;11.604;2022-09-09T09:31:53;93318.03;;;19.93;100.00
13314;BME280;6725;48.112;11.604;2022-09-09T09:34:20;93332.88;;;19.96;100.00
13314;BME280;6725;48.112;11.604;2022-09-09T09:36:54;93343.31;;;19.79;100.00
13314;BME280;6725;48.112;11.604;2022-09-09T09:41:48;93314.69;;;19.65;100.00
13314;BME280;6725;48.112;11.604;2022-09-09T09:44:30;93299.34;;;19.64;100.00
13314;BME280;6725;48.112;11.604;2022-09-09T09:47:28;93289.31;;;19.56;100.00
13314;BME280;6725;48.112;11.604;2022-09-09T09:49:59;93300.38;;;19.56;100.00
13314;BME280;6725;48.112;11.604;2022-09-09T09:52:29;93333.44;;;19.37;100.00
13314;BME280;6725;48.112;11.604;2022-09-09T09:54:57;93345.56;;;19.34;100.00
13314;BME280;6725;48.112;11.604;2022-09-09T09:57:26;93358.34;;;19.37;100.00
13314;BME280;6725;48.112;11.604;2022-09-09T10:02:40;93366.09;;;19.49;100.00
13314;BME280;6725;48.112;11.604;2022-09-09T10:07:43;93421.97;;;19.59;100.00
13314;BME280;6725;48.112;11.604;2022-09-09T10:10:15;93424.94;;;19.72;100.00
13314;BME280;6725;48.112;11.604;2022-09-09T10:12:59;93450.56;;;19.89;100.00
13314;BME280;6725;48.112;11.604;2022-09-09T10:21:15;93518.88;;;19.65;100.00
13314;BME280;6725;48.112;11.604;2022-09-09T10:26:38;93526.50;;;19.25;100.00
13314;BME280;6725;48.112;11.604;2022-09-09T10:29:45;93509.13;;;19.25;100.00
13314;BME280;6725;48.112;11.604;2022-09-09T10:35:26;93490.50;;;19.36;100.00
13314;BME280;6725;48.112;11.604;2022-09-09T10:43:26;93476.84;;;19.66;100.00
13314;BME280;6725;48.112;11.604;2022-09-09T10:56:55;93510.09;;;19.61;100.00
13314;BME280;6725;48.112;11.604;2022-09-09T10:59:31;93466.75;;;19.63;100.00
13314;BME280;6725;48.112;11.604;2022-09-09T11:02:05;93480.81;;;19.82;100.00
13314;BME280;6725;48.112;11.604;2022-09-09T11:04:40;93463.44;;;19.81;100.00
13314;BME280;6725;48.112;11.604;2022-09-09T11:07:10;93456.31;;;19.97;100.00
13314;BME280;6725;48.112;11.604;2022-09-09T11:09:42;93515.50;;;19.99;100.00
13314;BME280;6725;48.112;11.604;2022-09-09T11:12:13;93576.50;;;19.88;100.00
13314;BME280;6725;48.112;11.604;2022-09-09T11:14:51;93615.81;;;19.70;100.00
13314;BME280;6725;48.112;11.604;2022-09-09T11:17:22;93623.41;;;19.64;100.00
13314;BME280;6725;48.112;11.604;2022-09-09T11:19:49;93625.66;;;19.71;100.00
13314;BME280;6725;48.112;11.604;2022-09-09T11:24:57;93620.13;;;19.66;100.00
13314;BME280;6725;48.112;11.604;2022-09-09T11:30:40;93642.78;;;19.75;100.00
13314;BME280;6725;48.112;11.604;2022-09-09T11:38:52;93667.47;;;19.73;100.00
13314;BME280;6725;48.112;11.604;2022-09-09T11:41:20;93711.56;;;19.71;100.00
13314;BME280;6725;48.112;11.604;2022-09-09T11:43:52;93739.25;;;19.82;100.00
13314;BME280;6725;48.112;11.604;2022-09-09T11:46:21;93761.44;;;19.82;100.00
13314;BME280;6725;48.112;11.604;2022-09-09T11:49:01;93753.34;;;20.50;100.00
13314;BME280;6725;48.112;11.604;2022-09-09T11:51:29;93824.69;;;20.99;100.00
13314;BME280;6725;48.112;11.604;2022-09-09T11:56:34;94008.63;;;21.71;100.00
13314;BME280;6725;48.112;11.604;2022-09-09T12:01:53;94261.38;;;21.91;100.00
13314;BME280;6725;48.112;11.604;2022-09-09T12:06:59;94366.31;;;21.43;100.00
13314;BME280;6725;48.112;11.604;2022-09-09T12:09:50;94445.97;;;21.63;100.00
13314;BME280;6725;48.112;11.604;2022-09-09T12:12:34;94477.16;;;21.72;100.00
13314;BME280;6725;48.112;11.604;2022-09-09T12:17:47;94530.50;;;22.24;100.00
13314;BME280;6725;48.112;11.604;2022-09-09T12:20:15;94581.56;;;22.21;100.00
13314;BME280;6725;48.112;11.604;2022-09-09T12:28:10;94666.22;;;22.45;100.00
13314;BME280;6725;48.112;11.604;2022-09-09T12:31:00;94620.06;;;21.60;100.00
13314;BME280;6725;48.112;11.604;2022-09-09T12:33:37;94567.41;;;21.77;100.00
13314;BME280;6725;48.112;11.604;2022-09-09T12:36:03;94564.91;;;22.26;100.00
13314;BME280;6725;48.112;11.604;2022-09-09T12:38:39;94591.38;;;22.59;100.00
13314;BME280;6725;48.112;11.604;2022-09-09T12:41:05;94608.84;;;22.59;100.00
13314;BME280;6725;48.112;11.604;2022-09-09T12:43:30;94582.28;;;22.10;100.00
13314;BME280;6725;48.112;11.604;2022-09-09T12:45:59;94558.22;;;22.07;100.00
13314;BME280;6725;48.112;11.604;2022-09-09T12:48:36;94560.34;;;21.81;100.00
13314;BME280;6725;48.112;11.604;2022-09-09T12:51:05;94556.66;;;21.95;100.00
13314;BME280;6725;48.112;11.604;2022-09-09T12:53:35;94557.88;;;22.36;100.00
13314;BME280;6725;48.112;11.604;2022-09-09T12:56:06;94570.59;;;22.48;100.00
13314;BME280;6725;48.112;11.604;2022-09-09T12:58:36;94590.34;;;22.51;100.00
13314;BME280;6725;48.112;11.604;2022-09-09T13:01:04;94587.16;;;22.26;100.00
13314;BME280;6725;48.112;11.604;2022-09-09T13:03:31;94570.47;;;22.32;100.00
13314;BME280;6725;48.112;11.604;2022-09-09T13:06:18;94564.13;;;21.78;100.00
13314;BME280;6725;48.112;11.604;2022-09-09T13:08:44;94527.84;;;21.98;100.00
13314;BME280;6725;48.112;11.604;2022-09-09T13:11:17;94533.34;;;21.87;100.00
13314;BME280;6725;48.112;11.604;2022-09-09T13:13:50;94532.66;;;21.61;100.00
13314;BME280;6725;48.112;11.604;2022-09-09T13:16:23;94501.56;;;21.63;100.00
13314;BME280;6725;48.112;11.604;2022-09-09T13:18:50;94512.88;;;21.85;100.00
13314;BME280;6725;48.112;11.604;2022-09-09T13:21:17;94524.03;;;21.90;100.00
13314;BME280;6725;48.112;11.604;2022-09-09T13:23:48;94523.75;;;21.88;100.00
13314;BME280;6725;48.112;11.604;2022-09-09T13:26:26;94557.97;;;22.05;100.00
13314;BME280;6725;48.112;11.604;2022-09-09T13:28:53;94571.44;;;21.76;100.00
13314;BME280;6725;48.112;11.604;2022-09-09T13:31:22;94537.78;;;21.37;100.00
13314;BME280;6725;48.112;11.604;2022-09-09T13:33:47;94474.25;;;21.19;100.00
13314;BME280;6725;48.112;11.604;2022-09-09T13:36:13;94450.06;;;21.25;100.00
13314;BME280;6725;48.112;11.604;2022-09-09T13:41:19;94399.41;;;20.99;100.00
13314;BME280;6725;48.112;11.604;2022-09-09T13:43:47;94364.59;;;20.73;100.00
13314;BME280;6725;48.112;11.604;2022-09-09T13:46:42;94325.97;;;20.69;100.00
13314;BME280;6725;48.112;11.604;2022-09-09T13:51:50;94213.56;;;20.43;100.00
13314;BME280;6725;48.112;11.604;2022-09-09T13:54:19;94183.34;;;20.50;100.00
13314;BME280;6725;48.112;11.604;2022-09-09T13:56:45;94170.84;;;20.29;100.00
13314;BME280;6725;48.112;11.604;2022-09-09T13:59:16;94143.63;;;20.22;100.00
13314;BME280;6725;48.112;11.604;2022-09-09T14:01:43;94130.78;;;20.25;100.00
13314;BME280;6725;48.112;11.604;2022-09-09T14:04:09;94104.78;;;20.22;100.00
13314;BME280;6725;48.112;11.604;2022-09-09T14:06:36;94109.78;;;20.18;100.00
13314;BME280;6725;48.112;11.604;2022-09-09T14:09:05;94115.38;;;20.29;100.00
13314;BME280;6725;48.112;11.604;2022-09-09T14:11:31;94150.22;;;20.30;100.00
13314;BME280;6725;48.112;11.604;2022-09-09T14:13:56;94156.28;;;20.34;100.00
13314;BME280;6725;48.112;11.604;2022-09-09T14:16:21;94165.25;;;20.18;100.00
13314;BME280;6725;48.112;11.604;2022-09-09T14:18:47;94165.53;;;20.20;100.00
13314;BME280;6725;48.112;11.604;2022-09-09T14:21:13;94123.69;;;19.87;100.00
13314;BME280;6725;48.112;11.604;2022-09-09T14:23:40;94089.16;;;20.19;100.00
13314;BME280;6725;48.112;11.604;2022-09-09T14:26:06;94115.44;;;20.40;100.00
13314;BME280;6725;48.112;11.604;2022-09-09T14:28:31;94136.19;;;20.50;100.00
13314;BME280;6725;48.112;11.604;2022-09-09T14:31:03;94201.78;;;20.53;100.00
13314;BME280;6725;48.112;11.604;2022-09-09T14:33:29;94213.63;;;20.54;100.00
13314;BME280;6725;48.112;11.604;2022-09-09T14:35:58;94218.72;;;20.61;100.00
13314;BME280;6725;48.112;11.604;2022-09-09T14:38:25;94229.81;;;20.61;100.00
13314;BME280;6725;48.112;11.604;2022-09-09T14:40:50;94264.06;;;20.52;100.00
13314;BME280;6725;48.112;11.604;2022-09-09T14:43:16;94269.13;;;20.54;100.00
13314;BME280;6725;48.112;11.604;2022-09-09T14:45:41;94294.06;;;20.48;100.00
13314;BME280;6725;48.112;11.604;2022-09-09T14:48:06;94262.94;;;20.33;100.00
13314;BME280;6725;48.112;11.604;2022-09-09T14:50:32;94268.34;;;20.53;100.00
13314;BME280;6725;48.112;11.604;2022-09-09T14:52:57;94288.75;;;20.50;100.00
13314;BME280;6725;48.112;11.604;2022-09-09T14:55:23;94281.13;;;20.40;100.00
13314;BME280;6725;48.112;11.604;2022-09-09T14:57:48;94268.19;;;20.31;100.00
13314;BME280;6725;48.112;11.604;2022-09-09T15:00:14;94264.69;;;20.36;100.00
13314;BME280;6725;48.112;11.604;2022-09-09T15:02:40;94286.72;;;20.45;100.00
13314;BME280;6725;48.112;11.604;2022-09-09T15:05:08;94256.69;;;20.44;100.00
13314;BME280;6725;48.112;11.604;2022-09-09T15:07:34;94262.28;;;20.49;100.00
13314;BME280;6725;48.112;11.604;2022-09-09T15:09:59;94274.06;;;20.39;100.00
13314;BME280;6725;48.112;11.604;2022-09-09T15:12:24;94282.53;;;20.24;100.00
13314;BME280;6725;48.112;11.604;2022-09-09T15:14:49;94267.53;;;20.11;100.00
13314;BME280;6725;48.112;11.604;2022-09-09T15:17:16;94258.53;;;20.21;100.00